createdAt,value
2022-09-27T00:01:41.791Z,13.20
2022-09-27T00:04:11.936Z,13.20
2022-09-27T00:06:41.058Z,13.20
2022-09-27T00:09:10.588Z,13.20
2022-09-27T00:11:40.331Z,13.20
2022-09-27T00:14:09.850Z,13.20
2022-09-27T00:16:40.091Z,13.20
2022-09-27T00:19:12.479Z,13.20
2022-09-27T00:21:40.360Z,13.20
2022-09-27T00:24:08.614Z,13.20
2022-09-27T00:26:36.871Z,13.20
2022-09-27T00:29:04.769Z,13.20
2022-09-27T00:31:33.014Z,13.20
2022-09-27T00:34:02.685Z,13.20
2022-09-27T00:36:33.122Z,13.20
2022-09-27T00:39:01.850Z,13.20
2022-09-27T00:41:32.158Z,13.20
2022-09-27T00:44:04.330Z,13.20
2022-09-27T00:46:37.551Z,13.10
2022-09-27T00:49:09.264Z,13.10
2022-09-27T00:51:40.625Z,13.10
2022-09-27T00:54:12.462Z,13.00
2022-09-27T00:56:41.156Z,13.00
2022-09-27T00:59:15.161Z,13.00
2022-09-27T01:01:43.612Z,13.10
2022-09-27T01:04:14.253Z,13.00
2022-09-27T01:06:43.525Z,13.00
2022-09-27T01:09:12.795Z,13.10
2022-09-27T01:11:46.054Z,13.10
2022-09-27T01:14:39.090Z,13.00
2022-09-27T01:17:19.798Z,13.10
2022-09-27T01:20:21.061Z,13.00
2022-09-27T01:23:02.060Z,13.00
2022-09-27T01:25:56.360Z,13.00
2022-09-27T01:28:41.899Z,13.00
2022-09-27T01:31:20.850Z,13.00
2022-09-27T01:33:57.352Z,13.00
2022-09-27T01:36:32.591Z,13.00
2022-09-27T01:39:17.996Z,13.00
2022-09-27T01:42:13.498Z,12.90
2022-09-27T01:44:52.395Z,12.90
2022-09-27T01:47:29.918Z,12.90
2022-09-27T01:50:05.462Z,12.90
2022-09-27T01:52:40.098Z,12.90
2022-09-27T01:55:11.792Z,12.90
2022-09-27T01:58:13.526Z,12.90
2022-09-27T02:00:45.178Z,12.80
2022-09-27T02:03:18.267Z,12.80
2022-09-27T02:06:24.514Z,12.80
2022-09-27T02:09:03.385Z,12.80
2022-09-27T02:11:55.375Z,12.80
2022-09-27T02:14:29.361Z,12.90
2022-09-27T02:17:08.181Z,12.90
2022-09-27T02:19:44.103Z,12.90
2022-09-27T02:22:21.028Z,12.80
2022-09-27T02:24:54.993Z,12.90
2022-09-27T02:27:27.754Z,12.90
2022-09-27T02:30:02.713Z,12.80
2022-09-27T02:32:32.512Z,12.80
2022-09-27T02:35:06.703Z,12.80
2022-09-27T02:37:35.174Z,12.80
2022-09-27T02:40:04.561Z,12.80
2022-09-27T02:42:33.453Z,12.70
2022-09-27T02:45:01.778Z,12.80
2022-09-27T02:47:47.282Z,12.70
2022-09-27T02:50:33.306Z,12.70
2022-09-27T02:53:30.911Z,12.70
2022-09-27T02:56:14.307Z,12.80
2022-09-27T02:59:09.031Z,12.80
2022-09-27T03:02:13.585Z,12.80
2022-09-27T03:05:01.735Z,12.80
2022-09-27T03:07:31.953Z,12.80
2022-09-27T03:09:59.843Z,12.80
2022-09-27T03:12:27.906Z,12.80
2022-09-27T03:14:58.326Z,12.80
2022-09-27T03:17:55.299Z,12.80
2022-09-27T03:20:43.505Z,12.80
2022-09-27T03:23:14.244Z,12.80
2022-09-27T03:25:42.653Z,12.80
2022-09-27T03:28:13.728Z,12.80
2022-09-27T03:30:43.671Z,12.70
2022-09-27T03:33:13.487Z,12.70
2022-09-27T03:35:47.982Z,12.70
2022-09-27T03:38:18.203Z,12.70
2022-09-27T03:40:46.194Z,12.70
2022-09-27T03:43:15.147Z,12.60
2022-09-27T03:45:47.668Z,12.60
2022-09-27T03:48:15.834Z,12.60
2022-09-27T03:50:43.844Z,12.60
2022-09-27T03:53:11.867Z,12.60
2022-09-27T03:55:41.268Z,12.60
2022-09-27T03:58:09.461Z,12.60
2022-09-27T04:00:37.521Z,12.60
2022-09-27T04:03:06.125Z,12.60
2022-09-27T04:06:03.147Z,12.60
2022-09-27T04:08:38.377Z,12.60
2022-09-27T04:11:08.834Z,12.60
2022-09-27T04:13:36.904Z,12.50
2022-09-27T04:16:06.352Z,12.60
2022-09-27T04:19:01.599Z,12.50
2022-09-27T04:21:47.475Z,12.50
2022-09-27T04:24:16.292Z,12.50
2022-09-27T04:26:57.018Z,12.50
2022-09-27T04:29:28.203Z,12.50
2022-09-27T04:32:00.546Z,12.50
2022-09-27T04:35:09.325Z,12.50
2022-09-27T04:37:38.294Z,12.50
2022-09-27T04:40:06.839Z,12.40
2022-09-27T04:42:37.652Z,12.40
2022-09-27T04:45:07.127Z,12.40
2022-09-27T04:47:35.143Z,12.40
2022-09-27T04:50:03.480Z,12.40
2022-09-27T04:52:32.231Z,12.40
2022-09-27T04:55:00.053Z,12.40
2022-09-27T04:57:28.780Z,12.30
2022-09-27T04:59:59.000Z,12.30
2022-09-27T05:02:27.056Z,12.20
2022-09-27T05:05:18.179Z,12.20
2022-09-27T05:07:46.341Z,12.30
2022-09-27T05:10:26.376Z,12.30
2022-09-27T05:12:54.461Z,12.30
2022-09-27T05:15:23.870Z,12.30
2022-09-27T05:17:54.671Z,12.20
2022-09-27T05:20:56.807Z,12.20
2022-09-27T05:23:31.188Z,12.20
2022-09-27T05:25:59.100Z,12.20
2022-09-27T05:28:26.928Z,12.20
2022-09-27T05:30:56.576Z,12.10
2022-09-27T05:33:24.865Z,12.10
2022-09-27T05:36:25.320Z,12.10
2022-09-27T05:38:54.178Z,12.00
2022-09-27T05:41:24.133Z,12.10
2022-09-27T05:43:52.661Z,12.10
2022-09-27T05:46:21.930Z,12.10
2022-09-27T05:48:49.831Z,12.10
2022-09-27T05:51:19.294Z,12.10
2022-09-27T05:53:48.501Z,12.10
2022-09-27T05:56:24.860Z,12.10
2022-09-27T05:59:09.652Z,12.10
2022-09-27T06:02:04.733Z,12.10
2022-09-27T06:04:56.685Z,12.10
2022-09-27T06:07:44.517Z,12.10
2022-09-27T06:10:20.882Z,12.10
2022-09-27T06:12:50.253Z,12.10
2022-09-27T06:15:29.904Z,12.10
2022-09-27T06:18:04.927Z,12.10
2022-09-27T06:20:33.149Z,12.10
2022-09-27T06:23:08.476Z,12.10
2022-09-27T06:25:37.405Z,12.10
2022-09-27T06:28:35.583Z,12.10
2022-09-27T06:31:08.260Z,12.10
2022-09-27T06:33:57.908Z,12.00
2022-09-27T06:36:25.821Z,12.00
2022-09-27T06:38:53.721Z,12.00
2022-09-27T06:41:25.082Z,12.00
2022-09-27T06:44:11.465Z,12.00
2022-09-27T06:46:45.766Z,12.00
2022-09-27T06:49:31.551Z,12.00
2022-09-27T06:51:59.727Z,12.00
2022-09-27T06:54:27.774Z,12.10
2022-09-27T06:56:59.028Z,12.10
2022-09-27T06:59:47.480Z,12.10
2022-09-27T07:02:34.222Z,12.10
2022-09-27T07:05:35.680Z,12.10
2022-09-27T07:08:13.512Z,12.10
2022-09-27T07:10:43.890Z,12.10
2022-09-27T07:13:12.573Z,12.10
2022-09-27T07:15:42.425Z,12.20
2022-09-27T07:18:14.430Z,12.20
2022-09-27T07:20:43.854Z,12.20
2022-09-27T07:23:17.262Z,12.20
2022-09-27T07:25:45.490Z,12.30
2022-09-27T07:28:21.597Z,12.30
2022-09-27T07:30:50.580Z,12.30
2022-09-27T07:33:18.528Z,12.40
2022-09-27T07:35:47.758Z,12.40
2022-09-27T07:38:16.456Z,12.40
2022-09-27T07:40:44.784Z,12.40
2022-09-27T07:43:13.272Z,12.40
2022-09-27T07:45:41.386Z,12.40
2022-09-27T07:48:29.331Z,12.50
2022-09-27T07:51:08.408Z,12.50
2022-09-27T07:54:08.794Z,12.50
2022-09-27T07:56:39.838Z,12.50
2022-09-27T07:59:09.337Z,12.40
2022-09-27T08:01:37.438Z,12.40
2022-09-27T08:04:05.543Z,12.40
2022-09-27T08:06:35.166Z,12.40
2022-09-27T08:09:06.253Z,12.40
2022-09-27T08:11:35.489Z,12.40
2022-09-27T08:14:04.287Z,12.40
2022-09-27T08:16:34.949Z,12.40
2022-09-27T08:19:18.155Z,12.40
2022-09-27T08:22:04.633Z,12.40
2022-09-27T08:24:43.359Z,12.40
2022-09-27T08:27:43.757Z,12.40
2022-09-27T08:30:33.001Z,12.40
2022-09-27T08:33:03.789Z,12.40
2022-09-27T08:35:34.086Z,12.50
2022-09-27T08:38:05.903Z,12.50
2022-09-27T08:40:46.921Z,12.50
2022-09-27T08:43:22.570Z,12.60
2022-09-27T08:46:04.952Z,12.60
2022-09-27T08:48:35.004Z,12.70
2022-09-27T08:51:04.274Z,12.80
2022-09-27T08:53:39.827Z,12.80
2022-09-27T08:56:10.628Z,12.80
2022-09-27T08:58:46.715Z,12.90
2022-09-27T09:01:28.740Z,12.90
2022-09-27T09:04:11.879Z,12.90
2022-09-27T09:06:46.917Z,12.90
2022-09-27T09:09:27.992Z,12.90
2022-09-27T09:12:35.157Z,12.90
2022-09-27T09:15:19.705Z,12.90
2022-09-27T09:18:06.042Z,12.90
2022-09-27T09:20:58.461Z,12.90
2022-09-27T09:24:00.720Z,12.90
2022-09-27T09:26:36.539Z,12.90
2022-09-27T09:29:17.850Z,12.90
2022-09-27T09:31:52.279Z,12.90
2022-09-27T09:34:24.664Z,12.90
2022-09-27T09:36:58.993Z,13.00
2022-09-27T09:39:34.145Z,13.00
2022-09-27T09:42:11.124Z,13.00
2022-09-27T09:44:47.680Z,13.00
2022-09-27T09:47:23.823Z,13.00
2022-09-27T09:49:56.575Z,13.10
2022-09-27T09:52:28.170Z,13.10
2022-09-27T09:54:59.704Z,13.10
2022-09-27T09:57:36.477Z,13.20
2022-09-27T10:00:14.318Z,13.20
2022-09-27T10:02:47.862Z,13.20
2022-09-27T10:05:22.678Z,13.30
2022-09-27T10:08:01.677Z,13.30
2022-09-27T10:10:30.739Z,13.30
2022-09-27T10:13:02.885Z,13.30
2022-09-27T10:15:35.126Z,13.30
2022-09-27T10:18:03.263Z,13.30
2022-09-27T10:20:34.572Z,13.40
2022-09-27T10:23:10.692Z,13.40
2022-09-27T10:25:59.218Z,13.40
2022-09-27T10:28:43.446Z,13.50
2022-09-27T10:31:13.746Z,13.50
2022-09-27T10:33:56.704Z,13.50
2022-09-27T10:36:29.139Z,13.50
2022-09-27T10:38:58.833Z,13.60
2022-09-27T10:41:36.649Z,13.60
2022-09-27T10:44:26.633Z,13.60
2022-09-27T10:47:27.160Z,13.60
2022-09-27T10:50:07.777Z,13.60
2022-09-27T10:53:12.714Z,13.60
2022-09-27T10:55:43.483Z,13.70
2022-09-27T10:58:19.081Z,13.70
2022-09-27T11:00:58.086Z,13.70
2022-09-27T11:03:28.973Z,13.70
2022-09-27T11:05:59.618Z,13.70
2022-09-27T11:08:33.163Z,13.80
2022-09-27T11:11:16.313Z,13.80
2022-09-27T11:13:59.854Z,13.90
2022-09-27T11:16:48.062Z,14.00
2022-09-27T11:19:32.142Z,14.00
2022-09-27T11:22:06.195Z,13.90
2022-09-27T11:24:55.719Z,13.90
2022-09-27T11:27:35.375Z,13.90
2022-09-27T11:30:10.293Z,13.90
2022-09-27T11:33:36.938Z,13.80
2022-09-27T11:36:13.805Z,13.60
2022-09-27T11:38:57.180Z,13.50
2022-09-27T11:41:57.807Z,13.50
2022-09-27T11:45:03.018Z,13.50
2022-09-27T11:47:47.536Z,13.50
2022-09-27T11:50:51.852Z,13.50
2022-09-27T11:53:32.823Z,13.50
2022-09-27T11:56:13.403Z,13.60
2022-09-27T11:58:58.757Z,13.60
2022-09-27T12:01:36.606Z,13.60
2022-09-27T12:04:32.642Z,13.50
2022-09-27T12:07:08.966Z,13.60
2022-09-27T12:09:41.873Z,13.50
2022-09-27T12:12:15.618Z,13.50
2022-09-27T12:14:46.886Z,13.50
2022-09-27T12:17:19.702Z,13.50
2022-09-27T12:19:53.834Z,13.50
2022-09-27T12:22:57.994Z,13.50
2022-09-27T12:25:38.520Z,13.60
2022-09-27T12:28:27.307Z,13.60
2022-09-27T12:31:28.099Z,13.70
2022-09-27T12:34:09.568Z,13.70
2022-09-27T12:36:43.843Z,13.70
2022-09-27T12:39:19.416Z,13.80
2022-09-27T12:42:01.813Z,13.80
2022-09-27T12:44:45.904Z,13.80
2022-09-27T12:47:27.856Z,13.80
2022-09-27T12:50:05.038Z,13.80
2022-09-27T12:52:42.448Z,13.90
2022-09-27T12:55:35.344Z,13.90
2022-09-27T12:58:37.403Z,14.00
2022-09-27T13:01:15.254Z,14.10
2022-09-27T13:04:04.420Z,14.10
2022-09-27T13:06:55.649Z,14.10
2022-09-27T13:09:38.836Z,14.10
2022-09-27T13:12:12.118Z,14.10
2022-09-27T13:14:48.085Z,14.10
2022-09-27T13:17:48.772Z,14.10
2022-09-27T13:20:48.921Z,14.10
2022-09-27T13:23:57.917Z,14.10
2022-09-27T13:26:48.520Z,14.00
2022-09-27T13:29:31.666Z,14.00
2022-09-27T13:32:16.834Z,14.00
2022-09-27T13:35:20.773Z,14.10
2022-09-27T13:37:55.492Z,14.10
2022-09-27T13:40:32.799Z,14.10
2022-09-27T13:43:47.604Z,14.10
2022-09-27T13:46:38.464Z,14.10
2022-09-27T13:49:16.967Z,14.10
2022-09-27T13:52:07.856Z,14.10
2022-09-27T13:54:52.520Z,14.10
2022-09-27T13:57:43.345Z,14.20
2022-09-27T14:00:18.236Z,14.10
2022-09-27T14:03:02.542Z,14.10
2022-09-27T14:05:36.539Z,14.10
2022-09-27T14:08:06.330Z,14.10
2022-09-27T14:10:37.145Z,14.10
2022-09-27T14:13:07.098Z,14.10
2022-09-27T14:15:44.580Z,14.20
2022-09-27T14:18:14.845Z,14.20
2022-09-27T14:20:45.935Z,14.20
2022-09-27T14:23:27.520Z,14.20
2022-09-27T14:25:57.712Z,14.20
2022-09-27T14:28:30.283Z,14.20
2022-09-27T14:31:25.045Z,14.20
2022-09-27T14:34:09.329Z,14.20
2022-09-27T14:36:57.776Z,14.10
2022-09-27T14:39:32.314Z,14.10
2022-09-27T14:42:06.467Z,14.10
2022-09-27T14:44:35.833Z,14.10
2022-09-27T14:47:11.130Z,14.10
2022-09-27T14:49:49.428Z,14.10
2022-09-27T14:52:21.434Z,14.00
2022-09-27T14:55:01.142Z,14.00
2022-09-27T14:57:32.665Z,14.00
2022-09-27T15:00:03.865Z,13.90
2022-09-27T15:02:33.289Z,13.90
2022-09-27T15:05:02.553Z,13.90
2022-09-27T15:07:32.680Z,13.90
2022-09-27T15:10:00.637Z,14.00
2022-09-27T15:12:29.152Z,14.00
2022-09-27T15:14:59.372Z,14.00
2022-09-27T15:17:27.251Z,13.90
2022-09-27T15:20:04.906Z,13.90
2022-09-27T15:22:37.662Z,13.90
2022-09-27T15:25:19.390Z,13.90
2022-09-27T15:27:53.703Z,13.90
2022-09-27T15:30:29.837Z,13.90
2022-09-27T15:32:58.471Z,13.80
2022-09-27T15:35:33.247Z,13.80
2022-09-27T15:38:24.792Z,13.80
2022-09-27T15:41:08.222Z,13.80
2022-09-27T15:43:40.106Z,13.80
2022-09-27T15:46:33.911Z,13.80
2022-09-27T15:49:30.206Z,13.80
2022-09-27T15:52:00.917Z,13.80
2022-09-27T15:54:30.642Z,13.80
2022-09-27T15:57:04.362Z,13.80
2022-09-27T15:59:34.825Z,13.80
2022-09-27T16:02:08.251Z,13.80
2022-09-27T16:04:36.454Z,13.80
2022-09-27T16:07:08.916Z,13.80
2022-09-27T16:09:36.887Z,13.80
2022-09-27T16:12:04.919Z,13.80
2022-09-27T16:14:32.888Z,13.80
2022-09-27T16:17:00.859Z,13.70
2022-09-27T16:19:28.831Z,13.70
2022-09-27T16:21:56.750Z,13.70
2022-09-27T16:24:27.896Z,13.70
2022-09-27T16:26:55.858Z,13.70
2022-09-27T16:29:24.054Z,13.70
2022-09-27T16:31:53.628Z,13.70
2022-09-27T16:34:21.766Z,13.70
2022-09-27T16:36:50.787Z,13.70
2022-09-27T16:39:18.626Z,13.60
2022-09-27T16:41:48.259Z,13.60
2022-09-27T16:44:17.307Z,13.60
2022-09-27T16:46:46.157Z,13.60
2022-09-27T16:49:28.214Z,13.50
2022-09-27T16:52:01.884Z,13.50
2022-09-27T16:54:31.861Z,13.50
2022-09-27T16:57:01.178Z,13.50
2022-09-27T16:59:29.201Z,13.40
2022-09-27T17:01:57.889Z,13.40
2022-09-27T17:04:28.394Z,13.40
2022-09-27T17:06:56.907Z,13.40
2022-09-27T17:09:25.209Z,13.30
2022-09-27T17:11:53.085Z,13.30
2022-09-27T17:14:22.404Z,13.30
2022-09-27T17:16:51.297Z,13.20
2022-09-27T17:19:19.404Z,13.20
2022-09-27T17:21:47.663Z,13.20
2022-09-27T17:24:15.698Z,13.10
2022-09-27T17:26:43.863Z,13.10
2022-09-27T17:29:13.135Z,13.00
2022-09-27T17:31:43.062Z,13.00
2022-09-27T17:34:14.138Z,12.90
2022-09-27T17:36:45.013Z,12.90
2022-09-27T17:39:14.479Z,12.80
2022-09-27T17:41:43.693Z,12.80
2022-09-27T17:44:14.264Z,12.70
2022-09-27T17:46:43.876Z,12.70
2022-09-27T17:49:30.404Z,12.70
2022-09-27T17:51:58.274Z,12.70
2022-09-27T17:54:28.417Z,12.60
2022-09-27T17:56:56.771Z,12.60
2022-09-27T17:59:24.679Z,12.60
2022-09-27T18:01:54.630Z,12.60
2022-09-27T18:04:22.627Z,12.60
2022-09-27T18:06:51.157Z,12.60
2022-09-27T18:09:19.663Z,12.60
2022-09-27T18:11:48.168Z,12.60
2022-09-27T18:14:16.230Z,12.60
2022-09-27T18:16:44.817Z,12.60
2022-09-27T18:19:16.173Z,12.60
2022-09-27T18:21:44.334Z,12.60
2022-09-27T18:24:14.127Z,12.60
2022-09-27T18:26:42.775Z,12.60
2022-09-27T18:29:13.168Z,12.60
2022-09-27T18:31:47.530Z,12.60
2022-09-27T18:34:18.870Z,12.50
2022-09-27T18:36:47.598Z,12.50
2022-09-27T18:39:19.197Z,12.50
2022-09-27T18:41:48.525Z,12.50
2022-09-27T18:44:17.726Z,12.40
2022-09-27T18:46:46.560Z,12.40
2022-09-27T18:49:16.980Z,12.40
2022-09-27T18:51:47.001Z,12.40
2022-09-27T18:54:17.319Z,12.40
2022-09-27T18:56:45.481Z,12.30
2022-09-27T18:59:15.162Z,12.30
2022-09-27T19:01:46.239Z,12.30
2022-09-27T19:04:19.189Z,12.30
2022-09-27T19:06:51.601Z,12.30
2022-09-27T19:09:20.479Z,12.30
2022-09-27T19:11:48.351Z,12.20
2022-09-27T19:14:18.516Z,12.20
2022-09-27T19:16:47.944Z,12.20
2022-09-27T19:19:16.321Z,12.20
2022-09-27T19:21:44.388Z,12.20
2022-09-27T19:24:14.218Z,12.10
2022-09-27T19:26:42.593Z,12.10
2022-09-27T19:29:10.672Z,12.10
2022-09-27T19:31:38.566Z,12.10
2022-09-27T19:34:06.487Z,12.10
2022-09-27T19:36:34.572Z,12.10
2022-09-27T19:39:02.493Z,12.10
2022-09-27T19:41:31.785Z,12.10
2022-09-27T19:43:59.915Z,12.10
2022-09-27T19:46:27.938Z,12.00
2022-09-27T19:48:56.292Z,12.00
2022-09-27T19:51:25.585Z,12.00
2022-09-27T19:53:54.350Z,12.00
2022-09-27T19:56:22.963Z,12.00
2022-09-27T19:58:52.252Z,12.00
2022-09-27T20:01:22.117Z,12.00
2022-09-27T20:03:52.112Z,12.00
2022-09-27T20:06:22.501Z,12.00
2022-09-27T20:08:50.479Z,12.00
2022-09-27T20:11:20.111Z,12.00
2022-09-27T20:13:49.730Z,12.00
2022-09-27T20:16:21.426Z,11.90
2022-09-27T20:18:50.772Z,12.00
2022-09-27T20:21:19.937Z,12.00
2022-09-27T20:23:50.250Z,12.00
2022-09-27T20:26:19.728Z,12.00
2022-09-27T20:28:49.296Z,11.90
2022-09-27T20:31:19.019Z,11.90
2022-09-27T20:33:50.656Z,11.90
2022-09-27T20:36:20.680Z,11.90
2022-09-27T20:38:50.373Z,11.90
2022-09-27T20:41:20.583Z,11.90
2022-09-27T20:43:49.526Z,11.90
2022-09-27T20:46:19.126Z,11.90
2022-09-27T20:48:52.714Z,11.90
2022-09-27T20:51:20.842Z,11.90
2022-09-27T20:53:51.235Z,11.80
2022-09-27T20:56:20.769Z,11.80
2022-09-27T20:58:49.194Z,11.80
2022-09-27T21:01:18.099Z,11.80
2022-09-27T21:03:46.179Z,11.80
2022-09-27T21:06:16.248Z,11.80
2022-09-27T21:08:44.231Z,11.80
2022-09-27T21:11:13.724Z,11.80
2022-09-27T21:13:42.918Z,11.80
2022-09-27T21:16:14.437Z,11.80
2022-09-27T21:18:43.136Z,11.70
2022-09-27T21:21:12.312Z,11.70
2022-09-27T21:23:44.861Z,11.70
2022-09-27T21:26:14.911Z,11.70
2022-09-27T21:28:44.236Z,11.70
2022-09-27T21:31:15.698Z,11.70
2022-09-27T21:33:48.987Z,11.60
2022-09-27T21:36:16.911Z,11.60
2022-09-27T21:38:46.249Z,11.60
2022-09-27T21:41:15.980Z,11.60
2022-09-27T21:43:46.608Z,11.60
2022-09-27T21:46:16.594Z,11.60
2022-09-27T21:48:46.152Z,11.60
2022-09-27T21:51:16.556Z,11.60
2022-09-27T21:53:51.144Z,11.60
2022-09-27T21:56:19.611Z,11.60
2022-09-27T21:58:47.700Z,11.60
2022-09-27T22:01:18.254Z,11.50
2022-09-27T22:03:47.896Z,11.50
2022-09-27T22:06:17.370Z,11.40
2022-09-27T22:08:47.587Z,11.40
2022-09-27T22:11:16.907Z,11.40
2022-09-27T22:13:44.831Z,11.30
2022-09-27T22:16:14.508Z,11.30
2022-09-27T22:18:45.378Z,11.30
2022-09-27T22:21:15.073Z,11.30
2022-09-27T22:23:45.285Z,11.30
2022-09-27T22:26:16.216Z,11.30
2022-09-27T22:28:45.060Z,11.30
2022-09-27T22:31:15.181Z,11.30
2022-09-27T22:33:43.499Z,11.30
2022-09-27T22:36:12.082Z,11.30
2022-09-27T22:38:39.961Z,11.30
2022-09-27T22:41:07.921Z,11.30
2022-09-27T22:43:37.281Z,11.30
2022-09-27T22:46:05.235Z,11.20
2022-09-27T22:48:33.784Z,11.20
2022-09-27T22:51:02.335Z,11.20
2022-09-27T22:53:31.487Z,11.20
2022-09-27T22:56:03.991Z,11.20
2022-09-27T22:58:33.889Z,11.20
2022-09-27T23:01:08.279Z,11.20
2022-09-27T23:03:36.980Z,11.20
2022-09-27T23:06:07.035Z,11.20
2022-09-27T23:08:36.139Z,11.30
2022-09-27T23:11:05.938Z,11.30
2022-09-27T23:13:34.946Z,11.40
2022-09-27T23:16:06.033Z,11.40
2022-09-27T23:18:34.470Z,11.40
2022-09-27T23:21:06.903Z,11.40
2022-09-27T23:23:35.588Z,11.50
2022-09-27T23:26:07.012Z,11.50
2022-09-27T23:28:36.114Z,11.50
2022-09-27T23:31:10.789Z,11.50
2022-09-27T23:33:40.465Z,11.50
2022-09-27T23:36:10.305Z,11.60
2022-09-27T23:38:40.321Z,11.60
2022-09-27T23:41:09.083Z,11.60
2022-09-27T23:43:37.088Z,11.60
2022-09-27T23:46:06.693Z,11.60
2022-09-27T23:48:36.987Z,11.70
2022-09-27T23:51:06.247Z,11.70
2022-09-27T23:53:34.797Z,11.70
2022-09-27T23:56:04.687Z,11.70
2022-09-27T23:58:34.166Z,11.80
